createdAt,value
2023-02-14T00:07:32.888Z,61.54
2023-02-14T00:17:38.243Z,60.56
2023-02-14T00:27:41.816Z,60.63
2023-02-14T00:37:47.056Z,61.34
2023-02-14T00:47:50.174Z,61.54
2023-02-14T00:57:54.665Z,62.16
2023-02-14T01:07:57.744Z,62.24
2023-02-14T01:18:02.327Z,61.79
2023-02-14T01:28:05.784Z,62.27
2023-02-14T01:38:10.340Z,62.05
2023-02-14T01:48:13.871Z,61.66
2023-02-14T01:58:21.572Z,63.12
2023-02-14T02:08:25.224Z,62.65
2023-02-14T02:18:38.276Z,62.55
2023-02-14T02:29:16.622Z,61.94
2023-02-14T02:39:40.203Z,61.28
2023-02-14T02:50:04.436Z,61.03
2023-02-14T03:00:11.418Z,61.51
2023-02-14T03:10:16.369Z,61.40
2023-02-14T03:20:23.840Z,64.85
2023-02-14T03:30:31.461Z,61.94
2023-02-14T03:40:39.615Z,61.65
2023-02-14T03:50:44.567Z,61.65
2023-02-14T04:00:49.581Z,61.92
2023-02-14T04:10:53.334Z,62.26
2023-02-14T04:20:58.018Z,61.53
2023-02-14T04:31:02.912Z,61.95
2023-02-14T04:41:07.707Z,62.30
2023-02-14T04:51:10.840Z,62.26
2023-02-14T05:01:15.482Z,61.43
2023-02-14T05:11:18.627Z,61.18
2023-02-14T05:21:23.478Z,61.41
2023-02-14T05:31:26.746Z,62.23
2023-02-14T05:41:31.327Z,62.11
2023-02-14T05:51:34.473Z,61.98
2023-02-14T06:01:38.918Z,61.63
2023-02-14T06:11:42.033Z,61.63
2023-02-14T06:21:46.514Z,61.69
2023-02-14T06:31:49.804Z,64.12
2023-02-14T06:41:54.371Z,62.09
2023-02-14T06:51:57.554Z,61.64
2023-02-14T07:02:02.387Z,62.45
2023-02-14T07:12:05.743Z,61.76
2023-02-14T07:22:10.195Z,54.40
2023-02-14T07:32:13.629Z,51.08
2023-02-14T07:42:18.458Z,48.43
2023-02-14T07:52:21.612Z,46.55
2023-02-14T08:02:26.098Z,47.00
2023-02-14T08:12:46.767Z,48.80
2023-02-14T08:22:51.208Z,52.92
2023-02-14T08:32:54.938Z,50.73
2023-02-14T08:42:59.537Z,50.25
2023-02-14T08:53:02.711Z,50.26
2023-02-14T09:03:07.182Z,49.95
2023-02-14T09:13:10.383Z,52.58
2023-02-14T09:23:14.942Z,50.30
2023-02-14T09:33:18.304Z,48.65
2023-02-14T09:43:26.066Z,47.88
2023-02-14T09:53:31.374Z,44.79
2023-02-14T10:03:48.599Z,45.91
2023-02-14T10:13:54.253Z,46.64
2023-02-14T10:24:03.232Z,45.66
2023-02-14T10:34:10.206Z,46.19
2023-02-14T10:44:25.677Z,43.64
2023-02-14T10:54:38.104Z,42.77
2023-02-14T11:04:42.735Z,42.53
2023-02-14T11:14:46.476Z,43.70
2023-02-14T11:24:51.494Z,45.49
2023-02-14T11:34:59.140Z,44.56
2023-02-14T11:45:05.235Z,45.28
2023-02-14T11:55:08.643Z,44.32
2023-02-14T12:05:20.829Z,44.61
2023-02-14T12:15:36.674Z,41.08
2023-02-14T12:25:44.716Z,39.93
2023-02-14T12:35:55.143Z,39.97
2023-02-14T12:46:16.377Z,42.47
2023-02-14T12:56:28.445Z,41.33
2023-02-14T13:06:34.866Z,40.27
2023-02-14T13:16:42.774Z,41.98
2023-02-14T13:26:53.783Z,44.33
2023-02-14T13:36:58.651Z,42.15
2023-02-14T13:47:03.236Z,42.26
2023-02-14T13:57:28.282Z,41.31
2023-02-14T14:07:33.157Z,41.17
2023-02-14T14:17:37.552Z,40.94
2023-02-14T14:27:45.206Z,40.73
2023-02-14T14:37:50.629Z,40.84
2023-02-14T14:47:57.146Z,40.52
2023-02-14T14:58:04.088Z,40.59
2023-02-14T15:08:23.867Z,40.54
2023-02-14T15:18:27.211Z,40.86
2023-02-14T15:28:33.998Z,41.75
2023-02-14T15:38:39.626Z,41.84
2023-02-14T15:48:45.326Z,42.26
2023-02-14T15:58:49.526Z,42.67
2023-02-14T16:08:57.109Z,43.04
2023-02-14T16:19:01.747Z,43.86
2023-02-14T16:29:08.421Z,45.17
2023-02-14T16:39:15.913Z,46.29
2023-02-14T16:49:22.989Z,47.27
2023-02-14T16:59:26.179Z,48.29
2023-02-14T17:09:33.330Z,49.25
2023-02-14T17:19:36.483Z,49.82
2023-02-14T17:29:41.832Z,51.06
2023-02-14T17:39:44.977Z,51.72
2023-02-14T17:49:49.604Z,52.76
2023-02-14T17:59:53.693Z,52.42
2023-02-14T18:09:58.285Z,53.18
2023-02-14T18:20:01.472Z,54.53
2023-02-14T18:30:08.007Z,53.26
2023-02-14T18:40:16.392Z,54.27
2023-02-14T18:50:21.909Z,54.80
2023-02-14T19:00:27.145Z,55.97
2023-02-14T19:10:32.127Z,56.39
2023-02-14T19:20:36.018Z,55.80
2023-02-14T19:30:40.890Z,57.11
2023-02-14T19:40:45.843Z,56.20
2023-02-14T19:50:51.177Z,56.88
2023-02-14T20:00:58.785Z,57.25
2023-02-14T20:11:04.512Z,57.68
2023-02-14T20:21:08.557Z,57.88
2023-02-14T20:31:16.055Z,58.54
2023-02-14T20:41:19.507Z,58.60
2023-02-14T20:51:24.475Z,58.80
2023-02-14T21:01:27.815Z,58.80
2023-02-14T21:11:34.385Z,58.90
2023-02-14T21:21:38.648Z,58.79
2023-02-14T21:31:43.835Z,58.55
2023-02-14T21:41:47.255Z,58.33
2023-02-14T21:51:52.476Z,58.87
2023-02-14T22:01:56.049Z,60.02
2023-02-14T22:12:00.847Z,59.45
2023-02-14T22:22:04.404Z,59.28
2023-02-14T22:32:09.497Z,59.06
2023-02-14T22:42:12.722Z,59.86
2023-02-14T22:52:17.311Z,59.46
2023-02-14T23:02:20.438Z,59.50
2023-02-14T23:12:42.578Z,60.24
2023-02-14T23:22:45.743Z,59.83
2023-02-14T23:32:50.236Z,60.08
2023-02-14T23:42:54.828Z,59.57
2023-02-14T23:52:59.526Z,60.81
